createdAt,value
2023-02-22T00:01:07.619Z,3.88
2023-02-22T00:03:34.999Z,3.95
2023-02-22T00:06:05.452Z,8.95
2023-02-22T00:08:37.032Z,4.28
2023-02-22T00:11:10.368Z,7.07
2023-02-22T00:13:38.827Z,3.05
2023-02-22T00:16:06.917Z,3.75
2023-02-22T00:18:34.189Z,5.20
2023-02-22T00:21:05.439Z,4.43
2023-02-22T00:23:32.751Z,4.03
2023-02-22T00:26:01.296Z,3.92
2023-02-22T00:28:30.686Z,4.25
2023-02-22T00:30:59.955Z,4.15
2023-02-22T00:33:27.477Z,8.18
2023-02-22T00:35:55.044Z,6.05
2023-02-22T00:38:22.338Z,4.50
2023-02-22T00:40:49.658Z,4.50
2023-02-22T00:43:17.082Z,5.95
2023-02-22T00:45:44.351Z,5.40
2023-02-22T00:48:15.347Z,5.00
2023-02-22T00:50:42.634Z,6.07
2023-02-22T00:53:11.385Z,5.35
2023-02-22T00:55:38.943Z,7.30
2023-02-22T00:58:07.476Z,9.02
2023-02-22T01:00:41.741Z,5.68
2023-02-22T01:03:19.767Z,5.35
2023-02-22T01:05:47.249Z,3.42
2023-02-22T01:08:17.042Z,4.18
2023-02-22T01:10:44.884Z,5.93
2023-02-22T01:13:15.051Z,5.70
2023-02-22T01:15:45.031Z,8.68
2023-02-22T01:18:13.146Z,5.68
2023-02-22T01:20:40.677Z,7.57
2023-02-22T01:23:08.293Z,3.95
2023-02-22T01:25:36.436Z,4.03
2023-02-22T01:28:05.896Z,7.70
2023-02-22T01:30:35.659Z,5.28
2023-02-22T01:33:06.642Z,4.53
2023-02-22T01:35:40.990Z,4.60
2023-02-22T01:38:10.133Z,5.90
2023-02-22T01:40:41.990Z,4.35
2023-02-22T01:43:29.950Z,4.32
2023-02-22T01:46:21.277Z,5.30
2023-02-22T01:49:02.025Z,3.95
2023-02-22T01:51:43.070Z,3.83
2023-02-22T01:54:47.045Z,2.88
2023-02-22T01:57:33.093Z,4.00
2023-02-22T02:00:11.072Z,4.53
2023-02-22T02:02:54.712Z,4.43
2023-02-22T02:05:24.261Z,4.18
2023-02-22T02:07:52.038Z,5.80
2023-02-22T02:10:21.503Z,5.78
2023-02-22T02:12:53.265Z,5.95
2023-02-22T02:15:25.344Z,4.80
2023-02-22T02:17:54.929Z,4.88
2023-02-22T02:20:35.212Z,2.53
2023-02-22T02:23:52.845Z,4.90
2023-02-22T02:26:32.311Z,4.00
2023-02-22T02:29:29.677Z,3.00
2023-02-22T02:32:56.065Z,4.93
2023-02-22T02:35:54.596Z,5.15
2023-02-22T02:39:05.182Z,3.78
2023-02-22T02:41:42.849Z,6.22
2023-02-22T02:44:26.565Z,5.13
2023-02-22T02:47:09.076Z,4.20
2023-02-22T02:50:03.841Z,5.05
2023-02-22T02:52:34.311Z,5.68
2023-02-22T02:55:05.204Z,5.93
2023-02-22T02:57:32.561Z,3.30
2023-02-22T02:59:59.906Z,5.25
2023-02-22T03:03:22.117Z,4.90
2023-02-22T03:06:16.883Z,4.38
2023-02-22T03:09:26.570Z,4.30
2023-02-22T03:12:30.380Z,3.88
2023-02-22T03:15:32.498Z,3.13
2023-02-22T03:18:30.234Z,5.32
2023-02-22T03:21:19.766Z,4.70
2023-02-22T03:24:08.153Z,3.67
2023-02-22T03:26:55.422Z,3.28
2023-02-22T03:29:26.311Z,7.20
2023-02-22T03:32:01.610Z,7.07
2023-02-22T03:34:58.530Z,4.78
2023-02-22T03:37:37.707Z,4.65
2023-02-22T03:40:15.028Z,5.65
2023-02-22T03:42:51.683Z,4.50
2023-02-22T03:45:24.434Z,3.60
2023-02-22T03:48:03.184Z,4.40
2023-02-22T03:50:36.577Z,4.20
2023-02-22T03:53:05.472Z,6.00
2023-02-22T03:55:33.404Z,4.97
2023-02-22T03:58:09.726Z,5.57
2023-02-22T04:00:44.542Z,5.53
2023-02-22T04:03:11.880Z,3.53
2023-02-22T04:05:39.269Z,5.30
2023-02-22T04:08:06.659Z,4.80
2023-02-22T04:10:33.939Z,4.00
2023-02-22T04:13:01.249Z,3.78
2023-02-22T04:15:28.437Z,5.95
2023-02-22T04:18:00.126Z,3.15
2023-02-22T04:20:27.266Z,3.75
2023-02-22T04:22:55.702Z,7.53
2023-02-22T04:25:24.273Z,7.50
2023-02-22T04:27:52.202Z,4.22
2023-02-22T04:30:20.551Z,5.95
2023-02-22T04:32:48.135Z,4.47
2023-02-22T04:35:15.991Z,4.90
2023-02-22T04:37:43.127Z,7.30
2023-02-22T04:40:11.632Z,7.07
2023-02-22T04:42:42.201Z,4.68
2023-02-22T04:45:10.016Z,5.60
2023-02-22T04:47:38.229Z,5.00
2023-02-22T04:50:07.861Z,4.53
2023-02-22T04:52:38.195Z,3.90
2023-02-22T04:55:06.847Z,4.20
2023-02-22T04:57:34.022Z,5.90
2023-02-22T05:00:01.106Z,3.90
2023-02-22T05:02:28.595Z,4.40
2023-02-22T05:04:55.767Z,9.45
2023-02-22T05:07:23.007Z,6.25
2023-02-22T05:09:50.204Z,7.88
2023-02-22T05:12:17.405Z,7.50
2023-02-22T05:14:47.740Z,4.47
2023-02-22T05:17:15.050Z,6.07
2023-02-22T05:19:42.195Z,5.55
2023-02-22T05:22:09.411Z,4.35
2023-02-22T05:24:36.569Z,6.88
2023-02-22T05:27:03.757Z,5.70
2023-02-22T05:29:33.855Z,7.88
2023-02-22T05:32:02.711Z,5.25
2023-02-22T05:34:30.867Z,6.93
2023-02-22T05:36:58.042Z,4.85
2023-02-22T05:39:25.665Z,9.13
2023-02-22T05:41:52.888Z,5.07
2023-02-22T05:44:20.228Z,4.55
2023-02-22T05:46:47.436Z,6.07
2023-02-22T05:49:14.753Z,6.00
2023-02-22T05:51:42.407Z,8.40
2023-02-22T05:54:09.671Z,6.28
2023-02-22T05:56:36.967Z,5.80
2023-02-22T05:59:04.100Z,4.75
2023-02-22T06:01:31.180Z,6.75
2023-02-22T06:04:01.551Z,10.05
2023-02-22T06:06:28.626Z,5.60
2023-02-22T06:08:55.985Z,4.32
2023-02-22T06:11:23.244Z,6.10
2023-02-22T06:13:52.818Z,5.05
2023-02-22T06:16:22.298Z,7.28
2023-02-22T06:18:50.277Z,5.03
2023-02-22T06:21:18.246Z,6.65
2023-02-22T06:23:45.641Z,5.80
2023-02-22T06:26:19.632Z,7.40
2023-02-22T06:28:47.229Z,6.78
2023-02-22T06:31:14.760Z,6.50
2023-02-22T06:33:45.087Z,5.88
2023-02-22T06:36:12.530Z,9.48
2023-02-22T06:38:39.666Z,5.72
2023-02-22T06:41:08.510Z,5.45
2023-02-22T06:43:35.600Z,14.98
2023-02-22T06:46:03.211Z,5.20
2023-02-22T06:48:30.399Z,8.00
2023-02-22T06:51:00.886Z,10.57
2023-02-22T06:53:28.200Z,9.85
2023-02-22T06:55:55.605Z,7.55
2023-02-22T06:58:23.166Z,5.78
2023-02-22T07:00:50.596Z,6.53
2023-02-22T07:03:17.844Z,7.13
2023-02-22T07:05:45.530Z,5.93
2023-02-22T07:08:13.433Z,7.85
2023-02-22T07:10:41.404Z,7.32
2023-02-22T07:13:11.787Z,6.10
2023-02-22T07:15:38.928Z,7.28
2023-02-22T07:18:07.409Z,6.28
2023-02-22T07:20:34.890Z,8.10
2023-02-22T07:23:02.165Z,8.23
2023-02-22T07:25:29.323Z,8.82
2023-02-22T07:27:56.475Z,9.63
2023-02-22T07:30:34.263Z,6.22
2023-02-22T07:33:09.097Z,9.25
2023-02-22T07:35:46.913Z,6.57
2023-02-22T07:38:19.495Z,8.55
2023-02-22T07:40:46.841Z,10.02
2023-02-22T07:43:20.727Z,11.57
2023-02-22T07:45:51.079Z,6.95
2023-02-22T07:48:20.917Z,8.68
2023-02-22T07:50:48.710Z,10.82
2023-02-22T07:53:21.300Z,5.95
2023-02-22T07:55:51.109Z,9.70
2023-02-22T07:58:26.129Z,6.28
2023-02-22T08:00:56.602Z,5.43
2023-02-22T08:03:26.291Z,7.25
2023-02-22T08:05:56.790Z,5.70
2023-02-22T08:08:27.158Z,5.93
2023-02-22T08:11:00.972Z,10.68
2023-02-22T08:13:28.287Z,8.95
2023-02-22T08:15:56.262Z,11.52
2023-02-22T08:18:26.876Z,10.57
2023-02-22T08:20:55.063Z,8.60
2023-02-22T08:23:25.539Z,16.15
2023-02-22T08:25:53.291Z,9.82
2023-02-22T08:28:23.810Z,9.52
2023-02-22T08:30:51.723Z,9.20
2023-02-22T08:33:19.946Z,9.07
2023-02-22T08:35:50.019Z,9.13
2023-02-22T08:38:30.060Z,17.13
2023-02-22T08:40:57.517Z,8.98
2023-02-22T08:43:25.025Z,14.77
2023-02-22T08:45:52.986Z,7.65
2023-02-22T08:48:21.333Z,8.85
2023-02-22T08:50:48.550Z,14.13
2023-02-22T08:53:17.104Z,9.10
2023-02-22T08:55:45.481Z,8.70
2023-02-22T08:58:13.263Z,7.28
2023-02-22T09:00:41.836Z,10.50
2023-02-22T09:03:14.019Z,9.38
2023-02-22T09:05:43.181Z,8.63
2023-02-22T09:08:10.960Z,16.00
2023-02-22T09:10:38.445Z,16.20
2023-02-22T09:13:06.388Z,8.75
2023-02-22T09:15:36.670Z,6.38
2023-02-22T09:18:08.459Z,8.27
2023-02-22T09:20:36.293Z,5.63
2023-02-22T09:23:06.001Z,6.85
2023-02-22T09:25:36.426Z,10.20
2023-02-22T09:28:04.185Z,6.00
2023-02-22T09:30:35.150Z,7.18
2023-02-22T09:33:11.668Z,9.05
2023-02-22T09:35:42.593Z,7.78
2023-02-22T09:38:11.697Z,6.55
2023-02-22T09:40:47.685Z,5.88
2023-02-22T09:46:29.618Z,7.97
2023-02-22T09:48:59.722Z,6.03
2023-02-22T09:51:58.745Z,5.63
2023-02-22T09:54:43.441Z,5.20
2023-02-22T09:57:43.161Z,8.00
2023-02-22T10:00:23.977Z,6.90
2023-02-22T10:03:23.476Z,7.90
2023-02-22T10:06:00.832Z,8.63
2023-02-22T10:08:36.467Z,4.90
2023-02-22T10:13:54.716Z,9.20
2023-02-22T10:16:40.390Z,6.78
2023-02-22T10:19:13.290Z,7.73
2023-02-22T10:22:39.744Z,6.75
2023-02-22T10:25:20.143Z,6.22
2023-02-22T10:28:03.699Z,8.63
2023-02-22T10:30:36.812Z,8.48
2023-02-22T10:33:20.839Z,8.05
2023-02-22T10:35:48.877Z,7.10
2023-02-22T10:38:23.609Z,8.27
2023-02-22T10:41:10.794Z,7.82
2023-02-22T10:43:40.978Z,10.82
2023-02-22T10:46:13.854Z,6.68
2023-02-22T10:48:45.340Z,7.70
2023-02-22T10:51:16.067Z,9.50
2023-02-22T10:53:44.876Z,7.13
2023-02-22T10:56:24.675Z,9.95
2023-02-22T10:59:02.647Z,7.88
2023-02-22T11:01:33.072Z,9.82
2023-02-22T11:04:13.309Z,12.02
2023-02-22T11:06:44.649Z,5.63
2023-02-22T11:09:22.688Z,9.90
2023-02-22T11:12:11.889Z,6.03
2023-02-22T11:14:39.158Z,5.82
2023-02-22T11:17:14.025Z,4.72
2023-02-22T11:19:48.743Z,5.03
2023-02-22T11:22:24.986Z,6.20
2023-02-22T11:25:02.723Z,3.63
2023-02-22T11:27:47.093Z,3.55
2023-02-22T11:30:32.123Z,4.32
2023-02-22T11:33:03.739Z,5.55
2023-02-22T11:35:36.162Z,3.08
2023-02-22T11:38:28.381Z,4.00
2023-02-22T11:41:18.850Z,4.55
2023-02-22T11:43:51.761Z,2.42
2023-02-22T11:46:23.382Z,2.35
2023-02-22T11:49:07.101Z,4.40
2023-02-22T11:52:01.090Z,2.47
2023-02-22T11:54:43.364Z,4.07
2023-02-22T11:57:16.543Z,5.10
2023-02-22T12:00:02.565Z,3.95
2023-02-22T12:05:59.518Z,6.05
2023-02-22T12:08:42.832Z,5.25
2023-02-22T12:11:28.751Z,8.15
2023-02-22T12:14:42.011Z,4.10
2023-02-22T12:17:21.027Z,8.65
2023-02-22T12:20:01.404Z,3.72
2023-02-22T12:22:34.697Z,4.97
2023-02-22T12:25:25.248Z,3.88
2023-02-22T12:28:25.137Z,5.13
2023-02-22T12:31:16.437Z,3.00
2023-02-22T12:34:20.021Z,4.55
2023-02-22T12:36:53.851Z,2.80
2023-02-22T12:39:52.727Z,3.42
2023-02-22T12:42:58.725Z,4.80
2023-02-22T12:45:55.207Z,6.68
2023-02-22T12:49:03.498Z,3.15
2023-02-22T12:51:54.468Z,7.55
2023-02-22T12:54:39.712Z,2.05
2023-02-22T12:57:34.221Z,2.60
2023-02-22T13:00:28.839Z,2.88
2023-02-22T13:03:06.286Z,3.25
2023-02-22T13:05:39.741Z,4.70
2023-02-22T13:08:37.824Z,4.93
2023-02-22T13:11:39.515Z,4.63
2023-02-22T13:14:09.434Z,1.58
2023-02-22T13:16:52.669Z,5.80
2023-02-22T13:19:40.170Z,2.55
2023-02-22T13:22:38.659Z,5.00
2023-02-22T13:25:15.224Z,3.85
2023-02-22T13:28:08.288Z,2.83
2023-02-22T13:30:53.858Z,3.33
2023-02-22T13:34:24.646Z,3.00
2023-02-22T13:36:51.746Z,3.22
2023-02-22T13:39:56.869Z,4.13
2023-02-22T13:42:52.033Z,2.88
2023-02-22T13:46:12.893Z,3.15
2023-02-22T13:49:19.667Z,1.83
2023-02-22T13:52:06.743Z,2.42
2023-02-22T13:55:11.917Z,5.25
2023-02-22T13:57:48.704Z,2.75
2023-02-22T14:00:38.729Z,2.92
2023-02-22T14:03:15.349Z,2.88
2023-02-22T14:05:42.709Z,2.47
2023-02-22T14:08:19.041Z,3.17
2023-02-22T14:10:55.323Z,6.35
2023-02-22T14:13:32.278Z,3.38
2023-02-22T14:16:05.222Z,2.17
2023-02-22T14:19:06.447Z,4.07
2023-02-22T14:21:35.262Z,3.05
2023-02-22T14:24:16.816Z,3.67
2023-02-22T14:27:00.407Z,5.43
2023-02-22T14:29:28.049Z,2.72
2023-02-22T14:32:06.581Z,2.60
2023-02-22T14:34:54.099Z,3.95
2023-02-22T14:37:28.567Z,2.58
2023-02-22T14:40:28.620Z,3.83
2023-02-22T14:43:20.062Z,3.63
2023-02-22T14:45:57.194Z,3.00
2023-02-22T14:48:39.430Z,3.92
2023-02-22T14:51:24.575Z,4.03
2023-02-22T14:54:21.089Z,4.85
2023-02-22T14:57:24.604Z,3.47
2023-02-22T15:00:20.233Z,3.20
2023-02-22T15:02:53.315Z,6.32
2023-02-22T15:05:21.248Z,4.68
2023-02-22T15:07:58.696Z,5.25
2023-02-22T15:10:43.125Z,3.13
2023-02-22T15:13:27.469Z,5.78
2023-02-22T15:16:09.821Z,5.70
2023-02-22T15:18:48.696Z,4.95
2023-02-22T15:21:27.620Z,4.90
2023-02-22T15:24:07.743Z,6.05
2023-02-22T15:26:46.456Z,7.20
2023-02-22T15:29:32.748Z,6.65
2023-02-22T15:32:00.469Z,5.68
2023-02-22T15:34:31.960Z,6.97
2023-02-22T15:37:25.560Z,4.05
2023-02-22T15:39:59.472Z,6.80
2023-02-22T15:42:30.568Z,6.07
2023-02-22T15:45:01.273Z,9.38
2023-02-22T15:47:32.102Z,5.90
2023-02-22T15:50:27.452Z,5.40
2023-02-22T15:53:00.660Z,5.03
2023-02-22T15:55:47.605Z,4.38
2023-02-22T15:58:29.349Z,6.03
2023-02-22T16:01:05.518Z,6.85
2023-02-22T16:03:53.252Z,3.53
2023-02-22T16:06:40.734Z,4.60
2023-02-22T16:09:30.324Z,4.97
2023-02-22T16:12:27.731Z,7.82
2023-02-22T16:14:56.622Z,8.77
2023-02-22T16:17:49.544Z,6.30
2023-02-22T16:20:29.491Z,9.73
2023-02-22T16:22:58.542Z,9.63
2023-02-22T16:25:35.831Z,9.40
2023-02-22T16:28:31.313Z,8.80
2023-02-22T16:31:03.714Z,9.48
2023-02-22T16:33:34.295Z,5.72
2023-02-22T16:36:08.383Z,8.63
2023-02-22T16:38:38.509Z,7.65
2023-02-22T16:41:07.727Z,9.88
2023-02-22T16:43:36.500Z,7.15
2023-02-22T16:46:07.210Z,6.22
2023-02-22T16:48:40.602Z,8.65
2023-02-22T16:51:24.340Z,7.45
2023-02-22T16:53:54.932Z,7.85
2023-02-22T16:56:33.281Z,9.15
2023-02-22T16:59:09.779Z,14.15
2023-02-22T17:01:41.274Z,12.63
2023-02-22T17:04:20.081Z,15.13
2023-02-22T17:06:48.878Z,17.08
2023-02-22T17:09:17.372Z,18.83
2023-02-22T17:11:51.985Z,16.15
2023-02-22T17:14:23.648Z,20.45
2023-02-22T17:16:54.545Z,14.63
2023-02-22T17:19:27.368Z,12.23
2023-02-22T17:21:55.243Z,10.70
2023-02-22T17:24:24.985Z,12.00
2023-02-22T17:26:56.616Z,12.40
2023-02-22T17:29:27.450Z,13.32
2023-02-22T17:31:55.380Z,12.55
2023-02-22T17:34:23.275Z,14.52
2023-02-22T17:36:50.661Z,15.80
2023-02-22T17:39:20.383Z,15.10
2023-02-22T17:41:55.918Z,14.88
2023-02-22T17:44:27.120Z,13.65
2023-02-22T17:46:56.188Z,15.50
2023-02-22T17:49:24.162Z,12.88
2023-02-22T17:51:59.194Z,13.85
2023-02-22T17:54:30.719Z,12.77
2023-02-22T17:56:58.654Z,14.25
2023-02-22T17:59:27.655Z,14.00
2023-02-22T18:01:55.570Z,12.30
2023-02-22T18:04:23.839Z,12.65
2023-02-22T18:06:52.852Z,12.38
2023-02-22T18:09:20.547Z,16.85
2023-02-22T18:11:48.894Z,15.27
2023-02-22T18:14:17.196Z,14.15
2023-02-22T18:16:47.000Z,12.23
2023-02-22T18:19:21.519Z,18.35
2023-02-22T18:21:52.979Z,13.63
2023-02-22T18:24:28.365Z,16.35
2023-02-22T18:26:57.156Z,14.98
2023-02-22T18:29:26.829Z,17.40
2023-02-22T18:31:56.874Z,13.02
2023-02-22T18:34:25.614Z,15.20
2023-02-22T18:36:55.523Z,17.42
2023-02-22T18:39:24.066Z,13.48
2023-02-22T18:41:53.548Z,14.80
2023-02-22T18:44:24.084Z,18.23
2023-02-22T18:46:54.105Z,16.30
2023-02-22T18:49:28.652Z,16.40
2023-02-22T18:51:57.437Z,18.83
2023-02-22T18:54:25.627Z,16.55
2023-02-22T18:56:57.228Z,16.88
2023-02-22T18:59:25.656Z,19.27
2023-02-22T19:01:55.084Z,18.50
2023-02-22T19:04:25.208Z,16.83
2023-02-22T19:06:55.778Z,19.90
2023-02-22T19:09:26.553Z,26.75
2023-02-22T19:11:55.174Z,38.28
2023-02-22T19:14:25.088Z,60.63
2023-02-22T19:16:56.998Z,72.50
2023-02-22T19:19:44.856Z,92.07
2023-02-22T19:22:15.326Z,112.72
2023-02-22T19:24:45.967Z,131.73
2023-02-22T19:27:15.423Z,107.25
2023-02-22T19:29:45.056Z,104.85
2023-02-22T19:32:14.012Z,84.18
2023-02-22T19:34:48.394Z,63.22
2023-02-22T19:37:22.309Z,48.80
2023-02-22T19:39:50.594Z,39.03
2023-02-22T19:42:26.057Z,29.15
2023-02-22T19:44:56.558Z,33.00
2023-02-22T19:47:25.341Z,27.30
2023-02-22T19:49:54.050Z,29.83
2023-02-22T19:52:22.502Z,24.35
2023-02-22T19:54:52.091Z,22.50
2023-02-22T19:57:24.925Z,25.63
2023-02-22T19:59:55.354Z,20.67
2023-02-22T20:02:28.035Z,22.83
2023-02-22T20:04:56.316Z,21.52
2023-02-22T20:07:28.175Z,21.40
2023-02-22T20:09:57.341Z,29.25
2023-02-22T20:12:25.643Z,26.52
2023-02-22T20:14:54.644Z,21.15
2023-02-22T20:17:28.235Z,22.05
2023-02-22T20:19:59.554Z,23.77
2023-02-22T20:22:28.698Z,22.58
2023-02-22T20:24:58.905Z,31.35
2023-02-22T20:27:28.003Z,19.88
2023-02-22T20:30:01.496Z,22.00
2023-02-22T20:32:32.437Z,22.05
2023-02-22T20:35:01.914Z,23.35
2023-02-22T20:37:32.872Z,20.83
2023-02-22T20:40:07.220Z,20.45
2023-02-22T20:42:37.090Z,22.60
2023-02-22T20:45:08.204Z,18.45
2023-02-22T20:47:36.794Z,22.88
2023-02-22T20:50:06.220Z,20.00
2023-02-22T20:52:34.187Z,19.10
2023-02-22T20:55:06.412Z,22.85
2023-02-22T20:57:34.773Z,25.25
2023-02-22T21:00:03.307Z,20.73
2023-02-22T21:02:31.775Z,23.42
2023-02-22T21:05:00.228Z,17.88
2023-02-22T21:07:27.893Z,20.40
2023-02-22T21:09:55.898Z,23.50
2023-02-22T21:12:24.609Z,23.63
2023-02-22T21:14:53.210Z,22.02
2023-02-22T21:17:29.283Z,25.83
2023-02-22T21:19:59.356Z,23.02
2023-02-22T21:22:28.218Z,23.42
2023-02-22T21:24:56.876Z,24.98
2023-02-22T21:27:25.088Z,24.63
2023-02-22T21:29:53.418Z,25.55
2023-02-22T21:32:21.369Z,23.13
2023-02-22T21:34:50.317Z,23.10
2023-02-22T21:37:19.012Z,26.00
2023-02-22T21:39:50.229Z,22.38
2023-02-22T21:42:18.334Z,17.40
2023-02-22T21:44:50.133Z,28.33
2023-02-22T21:47:17.848Z,22.17
2023-02-22T21:49:45.266Z,26.45
2023-02-22T21:52:12.602Z,22.48
2023-02-22T21:54:39.944Z,21.55
2023-02-22T21:57:07.480Z,24.10
2023-02-22T21:59:34.985Z,19.15
2023-02-22T22:02:02.202Z,21.55
2023-02-22T22:04:32.255Z,19.23
2023-02-22T22:07:01.816Z,23.67
2023-02-22T22:09:33.256Z,23.17
2023-02-22T22:12:05.287Z,24.10
2023-02-22T22:14:34.733Z,23.00
2023-02-22T22:17:05.574Z,23.95
2023-02-22T22:19:41.757Z,27.75
2023-02-22T22:22:09.138Z,19.35
2023-02-22T22:24:37.116Z,22.40
2023-02-22T22:27:12.874Z,21.08
2023-02-22T22:29:40.480Z,23.35
2023-02-22T22:32:07.752Z,24.85
2023-02-22T22:34:37.875Z,21.83
2023-02-22T22:37:08.766Z,23.15
2023-02-22T22:39:35.990Z,23.25
2023-02-22T22:42:03.245Z,21.15
2023-02-22T22:44:33.075Z,28.83
2023-02-22T22:47:05.987Z,26.67
2023-02-22T22:49:40.380Z,21.85
2023-02-22T22:52:08.396Z,20.75
2023-02-22T22:54:36.165Z,18.38
2023-02-22T22:57:04.089Z,23.60
2023-02-22T22:59:31.854Z,19.17
2023-02-22T23:01:59.425Z,20.33
2023-02-22T23:04:32.821Z,20.80
2023-02-22T23:07:05.253Z,21.70
2023-02-22T23:09:34.950Z,24.90
2023-02-22T23:12:16.765Z,20.20
2023-02-22T23:14:45.397Z,19.13
2023-02-22T23:17:26.892Z,19.50
2023-02-22T23:19:54.218Z,20.00
2023-02-22T23:22:24.139Z,22.17
2023-02-22T23:24:51.234Z,19.92
2023-02-22T23:27:19.038Z,19.27
2023-02-22T23:29:46.831Z,21.13
2023-02-22T23:32:17.457Z,20.10
2023-02-22T23:34:44.602Z,21.60
2023-02-22T23:37:14.096Z,18.80
2023-02-22T23:39:41.639Z,20.52
2023-02-22T23:42:09.139Z,24.38
2023-02-22T23:44:36.467Z,20.67
2023-02-22T23:47:04.504Z,22.00
2023-02-22T23:49:38.489Z,19.45
2023-02-22T23:52:07.392Z,19.55
2023-02-22T23:54:40.236Z,18.90
2023-02-22T23:57:11.036Z,22.88
2023-02-22T23:59:41.348Z,18.23
